sensor_id;sensor_type;location;lat;lon;timestamp;P1;durP1;ratioP1;P2;durP2;ratioP2
12886;SDS011;6511;49.746;6.094;2023-05-19T00:01:35;2.38;;;1.77;;
12886;SDS011;6511;49.746;6.094;2023-05-19T00:04:01;1.98;;;1.50;;
12886;SDS011;6511;49.746;6.094;2023-05-19T00:06:30;2.27;;;1.87;;
12886;SDS011;6511;49.746;6.094;2023-05-19T00:08:57;3.55;;;1.90;;
12886;SDS011;6511;49.746;6.094;2023-05-19T00:11:24;4.18;;;1.90;;
12886;SDS011;6511;49.746;6.094;2023-05-19T00:13:51;4.88;;;1.92;;
12886;SDS011;6511;49.746;6.094;2023-05-19T00:16:18;3.30;;;1.88;;
12886;SDS011;6511;49.746;6.094;2023-05-19T00:18:43;2.67;;;1.60;;
12886;SDS011;6511;49.746;6.094;2023-05-19T00:21:11;3.08;;;1.90;;
12886;SDS011;6511;49.746;6.094;2023-05-19T00:23:37;3.07;;;1.90;;
12886;SDS011;6511;49.746;6.094;2023-05-19T00:26:02;2.58;;;2.22;;
12886;SDS011;6511;49.746;6.094;2023-05-19T00:28:28;3.43;;;2.47;;
12886;SDS011;6511;49.746;6.094;2023-05-19T00:30:53;3.22;;;2.47;;
12886;SDS011;6511;49.746;6.094;2023-05-19T00:33:20;4.05;;;2.35;;
12886;SDS011;6511;49.746;6.094;2023-05-19T00:35:45;4.37;;;2.50;;
12886;SDS011;6511;49.746;6.094;2023-05-19T00:38:11;4.43;;;2.40;;
12886;SDS011;6511;49.746;6.094;2023-05-19T00:40:37;3.13;;;2.35;;
12886;SDS011;6511;49.746;6.094;2023-05-19T00:43:02;6.38;;;2.53;;
12886;SDS011;6511;49.746;6.094;2023-05-19T00:45:29;3.45;;;2.70;;
12886;SDS011;6511;49.746;6.094;2023-05-19T00:47:55;3.45;;;2.50;;
12886;SDS011;6511;49.746;6.094;2023-05-19T00:50:21;3.60;;;2.50;;
12886;SDS011;6511;49.746;6.094;2023-05-19T00:52:48;3.90;;;2.60;;
12886;SDS011;6511;49.746;6.094;2023-05-19T00:55:14;3.63;;;2.40;;
12886;SDS011;6511;49.746;6.094;2023-05-19T00:57:40;3.55;;;2.60;;
12886;SDS011;6511;49.746;6.094;2023-05-19T01:00:07;4.03;;;2.30;;
12886;SDS011;6511;49.746;6.094;2023-05-19T01:02:33;3.13;;;2.30;;
12886;SDS011;6511;49.746;6.094;2023-05-19T01:04:59;3.63;;;2.25;;
12886;SDS011;6511;49.746;6.094;2023-05-19T01:07:26;4.28;;;2.40;;
12886;SDS011;6511;49.746;6.094;2023-05-19T01:09:52;4.03;;;2.35;;
12886;SDS011;6511;49.746;6.094;2023-05-19T01:12:18;4.03;;;2.20;;
12886;SDS011;6511;49.746;6.094;2023-05-19T01:14:43;2.58;;;1.95;;
12886;SDS011;6511;49.746;6.094;2023-05-19T01:31:15;4.30;;;2.13;;
12886;SDS011;6511;49.746;6.094;2023-05-19T01:33:44;3.60;;;2.30;;
12886;SDS011;6511;49.746;6.094;2023-05-19T01:36:12;3.95;;;2.30;;
12886;SDS011;6511;49.746;6.094;2023-05-19T01:38:39;3.10;;;2.20;;
12886;SDS011;6511;49.746;6.094;2023-05-19T01:41:06;3.03;;;2.08;;
12886;SDS011;6511;49.746;6.094;2023-05-19T01:43:33;3.40;;;2.10;;
12886;SDS011;6511;49.746;6.094;2023-05-19T01:46:00;3.72;;;2.40;;
12886;SDS011;6511;49.746;6.094;2023-05-19T01:48:26;3.88;;;2.47;;
12886;SDS011;6511;49.746;6.094;2023-05-19T01:50:53;2.80;;;2.15;;
12886;SDS011;6511;49.746;6.094;2023-05-19T01:53:21;4.15;;;2.15;;
12886;SDS011;6511;49.746;6.094;2023-05-19T01:55:51;3.55;;;2.22;;
12886;SDS011;6511;49.746;6.094;2023-05-19T02:03:58;4.10;;;2.20;;
12886;SDS011;6511;49.746;6.094;2023-05-19T02:06:40;3.20;;;2.15;;
12886;SDS011;6511;49.746;6.094;2023-05-19T02:09:30;2.95;;;2.05;;
12886;SDS011;6511;49.746;6.094;2023-05-19T02:12:00;3.07;;;2.23;;
12886;SDS011;6511;49.746;6.094;2023-05-19T02:14:33;3.80;;;1.90;;
12886;SDS011;6511;49.746;6.094;2023-05-19T02:17:03;2.88;;;2.20;;
12886;SDS011;6511;49.746;6.094;2023-05-19T02:19:30;2.45;;;2.22;;
12886;SDS011;6511;49.746;6.094;2023-05-19T02:21:58;3.45;;;2.30;;
12886;SDS011;6511;49.746;6.094;2023-05-19T02:24:23;5.07;;;2.47;;
12886;SDS011;6511;49.746;6.094;2023-05-19T02:26:50;2.97;;;2.30;;
12886;SDS011;6511;49.746;6.094;2023-05-19T02:29:16;3.25;;;2.40;;
12886;SDS011;6511;49.746;6.094;2023-05-19T02:31:42;3.03;;;2.23;;
12886;SDS011;6511;49.746;6.094;2023-05-19T02:34:08;2.97;;;2.08;;
12886;SDS011;6511;49.746;6.094;2023-05-19T02:36:34;3.88;;;2.38;;
12886;SDS011;6511;49.746;6.094;2023-05-19T02:39:01;5.80;;;2.42;;
12886;SDS011;6511;49.746;6.094;2023-05-19T02:41:27;3.80;;;2.22;;
12886;SDS011;6511;49.746;6.094;2023-05-19T02:43:55;3.00;;;2.40;;
12886;SDS011;6511;49.746;6.094;2023-05-19T02:46:20;3.67;;;2.40;;
12886;SDS011;6511;49.746;6.094;2023-05-19T02:48:46;3.90;;;2.20;;
12886;SDS011;6511;49.746;6.094;2023-05-19T02:51:11;2.55;;;2.00;;
12886;SDS011;6511;49.746;6.094;2023-05-19T02:53:37;4.17;;;2.30;;
12886;SDS011;6511;49.746;6.094;2023-05-19T02:56:02;3.07;;;2.23;;
12886;SDS011;6511;49.746;6.094;2023-05-19T02:58:28;2.55;;;2.20;;
12886;SDS011;6511;49.746;6.094;2023-05-19T03:00:54;3.05;;;2.28;;
12886;SDS011;6511;49.746;6.094;2023-05-19T03:03:20;2.77;;;2.30;;
12886;SDS011;6511;49.746;6.094;2023-05-19T03:05:45;6.20;;;2.47;;
12886;SDS011;6511;49.746;6.094;2023-05-19T03:08:11;2.80;;;2.23;;
12886;SDS011;6511;49.746;6.094;2023-05-19T03:10:37;3.30;;;2.50;;
12886;SDS011;6511;49.746;6.094;2023-05-19T03:13:03;4.43;;;2.63;;
12886;SDS011;6511;49.746;6.094;2023-05-19T03:15:28;4.47;;;2.65;;
12886;SDS011;6511;49.746;6.094;2023-05-19T03:17:54;3.30;;;2.23;;
12886;SDS011;6511;49.746;6.094;2023-05-19T03:20:20;4.10;;;2.33;;
12886;SDS011;6511;49.746;6.094;2023-05-19T03:22:46;3.67;;;2.07;;
12886;SDS011;6511;49.746;6.094;2023-05-19T03:25:11;4.05;;;2.67;;
12886;SDS011;6511;49.746;6.094;2023-05-19T03:27:37;4.10;;;2.87;;
12886;SDS011;6511;49.746;6.094;2023-05-19T03:30:03;4.30;;;2.17;;
12886;SDS011;6511;49.746;6.094;2023-05-19T03:32:29;3.78;;;2.60;;
12886;SDS011;6511;49.746;6.094;2023-05-19T03:34:56;2.20;;;1.75;;
12886;SDS011;6511;49.746;6.094;2023-05-19T03:37:22;3.50;;;2.40;;
12886;SDS011;6511;49.746;6.094;2023-05-19T03:39:48;3.53;;;2.47;;
12886;SDS011;6511;49.746;6.094;2023-05-19T03:42:13;2.87;;;2.20;;
12886;SDS011;6511;49.746;6.094;2023-05-19T03:44:39;4.50;;;2.50;;
12886;SDS011;6511;49.746;6.094;2023-05-19T03:47:05;3.60;;;2.30;;
12886;SDS011;6511;49.746;6.094;2023-05-19T03:49:31;3.47;;;2.20;;
12886;SDS011;6511;49.746;6.094;2023-05-19T03:51:56;3.37;;;2.30;;
12886;SDS011;6511;49.746;6.094;2023-05-19T03:54:22;3.42;;;2.30;;
12886;SDS011;6511;49.746;6.094;2023-05-19T03:56:48;4.30;;;2.67;;
12886;SDS011;6511;49.746;6.094;2023-05-19T03:59:13;2.70;;;2.10;;
12886;SDS011;6511;49.746;6.094;2023-05-19T04:01:40;3.90;;;2.38;;
12886;SDS011;6511;49.746;6.094;2023-05-19T04:04:05;4.40;;;2.30;;
12886;SDS011;6511;49.746;6.094;2023-05-19T04:06:31;3.63;;;2.33;;
12886;SDS011;6511;49.746;6.094;2023-05-19T04:08:57;3.13;;;2.17;;
12886;SDS011;6511;49.746;6.094;2023-05-19T04:11:23;2.97;;;2.30;;
12886;SDS011;6511;49.746;6.094;2023-05-19T04:13:49;4.43;;;2.60;;
12886;SDS011;6511;49.746;6.094;2023-05-19T04:16:15;5.75;;;2.50;;
12886;SDS011;6511;49.746;6.094;2023-05-19T04:18:40;3.53;;;2.53;;
12886;SDS011;6511;49.746;6.094;2023-05-19T04:21:06;2.85;;;2.40;;
12886;SDS011;6511;49.746;6.094;2023-05-19T04:23:32;3.33;;;2.37;;
12886;SDS011;6511;49.746;6.094;2023-05-19T04:25:58;3.17;;;2.35;;
12886;SDS011;6511;49.746;6.094;2023-05-19T04:28:25;2.38;;;2.15;;
12886;SDS011;6511;49.746;6.094;2023-05-19T04:30:51;2.93;;;2.53;;
12886;SDS011;6511;49.746;6.094;2023-05-19T04:33:17;4.38;;;2.33;;
12886;SDS011;6511;49.746;6.094;2023-05-19T04:35:44;3.05;;;2.40;;
12886;SDS011;6511;49.746;6.094;2023-05-19T04:38:10;3.40;;;2.53;;
12886;SDS011;6511;49.746;6.094;2023-05-19T04:40:36;4.13;;;2.65;;
12886;SDS011;6511;49.746;6.094;2023-05-19T04:43:04;2.88;;;2.20;;
12886;SDS011;6511;49.746;6.094;2023-05-19T04:45:31;3.88;;;2.58;;
12886;SDS011;6511;49.746;6.094;2023-05-19T04:47:57;3.33;;;2.40;;
12886;SDS011;6511;49.746;6.094;2023-05-19T04:50:23;3.47;;;2.57;;
12886;SDS011;6511;49.746;6.094;2023-05-19T04:52:49;2.97;;;2.67;;
12886;SDS011;6511;49.746;6.094;2023-05-19T04:55:14;3.35;;;2.65;;
12886;SDS011;6511;49.746;6.094;2023-05-19T04:57:41;4.00;;;2.75;;
12886;SDS011;6511;49.746;6.094;2023-05-19T05:00:06;5.13;;;2.90;;
12886;SDS011;6511;49.746;6.094;2023-05-19T05:02:36;3.30;;;2.23;;
12886;SDS011;6511;49.746;6.094;2023-05-19T05:05:01;4.10;;;2.83;;
12886;SDS011;6511;49.746;6.094;2023-05-19T05:07:28;3.45;;;2.80;;
12886;SDS011;6511;49.746;6.094;2023-05-19T05:09:53;4.43;;;2.80;;
12886;SDS011;6511;49.746;6.094;2023-05-19T05:12:19;3.08;;;2.30;;
12886;SDS011;6511;49.746;6.094;2023-05-19T05:14:46;4.68;;;2.63;;
12886;SDS011;6511;49.746;6.094;2023-05-19T05:17:12;3.10;;;2.55;;
12886;SDS011;6511;49.746;6.094;2023-05-19T05:19:38;5.05;;;2.90;;
12886;SDS011;6511;49.746;6.094;2023-05-19T05:22:04;3.05;;;2.65;;
12886;SDS011;6511;49.746;6.094;2023-05-19T05:24:30;6.00;;;2.50;;
12886;SDS011;6511;49.746;6.094;2023-05-19T05:26:57;5.25;;;2.90;;
12886;SDS011;6511;49.746;6.094;2023-05-19T05:29:23;3.80;;;2.67;;
12886;SDS011;6511;49.746;6.094;2023-05-19T05:31:49;4.30;;;2.63;;
12886;SDS011;6511;49.746;6.094;2023-05-19T05:34:15;3.65;;;2.30;;
12886;SDS011;6511;49.746;6.094;2023-05-19T05:36:41;3.55;;;2.20;;
12886;SDS011;6511;49.746;6.094;2023-05-19T05:39:06;4.67;;;2.50;;
12886;SDS011;6511;49.746;6.094;2023-05-19T05:41:32;4.40;;;2.25;;
12886;SDS011;6511;49.746;6.094;2023-05-19T05:44:01;4.82;;;2.25;;
12886;SDS011;6511;49.746;6.094;2023-05-19T05:46:26;2.20;;;2.00;;
12886;SDS011;6511;49.746;6.094;2023-05-19T05:48:52;2.33;;;2.13;;
12886;SDS011;6511;49.746;6.094;2023-05-19T05:51:21;3.55;;;2.05;;
12886;SDS011;6511;49.746;6.094;2023-05-19T05:53:50;3.92;;;2.10;;
12886;SDS011;6511;49.746;6.094;2023-05-19T05:56:18;3.08;;;2.30;;
12886;SDS011;6511;49.746;6.094;2023-05-19T05:58:44;2.67;;;2.03;;
12886;SDS011;6511;49.746;6.094;2023-05-19T06:01:09;2.38;;;2.13;;
12886;SDS011;6511;49.746;6.094;2023-05-19T06:03:41;3.63;;;1.90;;
12886;SDS011;6511;49.746;6.094;2023-05-19T06:06:09;2.00;;;1.80;;
12886;SDS011;6511;49.746;6.094;2023-05-19T06:08:35;2.10;;;1.75;;
12886;SDS011;6511;49.746;6.094;2023-05-19T06:11:01;1.50;;;1.40;;
12886;SDS011;6511;49.746;6.094;2023-05-19T06:13:32;1.48;;;1.33;;
12886;SDS011;6511;49.746;6.094;2023-05-19T06:16:01;4.40;;;1.52;;
12886;SDS011;6511;49.746;6.094;2023-05-19T06:18:27;1.85;;;1.30;;
12886;SDS011;6511;49.746;6.094;2023-05-19T06:20:53;1.47;;;1.30;;
12886;SDS011;6511;49.746;6.094;2023-05-19T06:23:19;2.65;;;1.45;;
12886;SDS011;6511;49.746;6.094;2023-05-19T06:25:45;2.10;;;1.10;;
12886;SDS011;6511;49.746;6.094;2023-05-19T06:28:11;2.23;;;1.30;;
12886;SDS011;6511;49.746;6.094;2023-05-19T06:30:36;2.70;;;1.10;;
12886;SDS011;6511;49.746;6.094;2023-05-19T06:33:02;2.78;;;1.52;;
12886;SDS011;6511;49.746;6.094;2023-05-19T06:35:28;2.23;;;1.30;;
12886;SDS011;6511;49.746;6.094;2023-05-19T06:37:54;3.20;;;1.10;;
12886;SDS011;6511;49.746;6.094;2023-05-19T06:40:21;1.38;;;1.27;;
12886;SDS011;6511;49.746;6.094;2023-05-19T06:42:46;2.80;;;1.20;;
12886;SDS011;6511;49.746;6.094;2023-05-19T06:45:12;2.67;;;1.20;;
12886;SDS011;6511;49.746;6.094;2023-05-19T06:47:38;1.30;;;1.20;;
12886;SDS011;6511;49.746;6.094;2023-05-19T06:50:08;1.75;;;1.20;;
12886;SDS011;6511;49.746;6.094;2023-05-19T06:52:34;1.40;;;1.02;;
12886;SDS011;6511;49.746;6.094;2023-05-19T06:55:00;1.70;;;1.10;;
12886;SDS011;6511;49.746;6.094;2023-05-19T06:57:26;2.27;;;0.90;;
12886;SDS011;6511;49.746;6.094;2023-05-19T06:59:51;1.80;;;1.20;;
12886;SDS011;6511;49.746;6.094;2023-05-19T07:02:17;2.70;;;1.20;;
12886;SDS011;6511;49.746;6.094;2023-05-19T07:04:43;2.20;;;1.10;;
12886;SDS011;6511;49.746;6.094;2023-05-19T07:07:08;1.17;;;1.07;;
12886;SDS011;6511;49.746;6.094;2023-05-19T07:09:34;1.45;;;1.10;;
12886;SDS011;6511;49.746;6.094;2023-05-19T07:12:00;0.87;;;0.87;;
12886;SDS011;6511;49.746;6.094;2023-05-19T07:14:25;1.48;;;1.17;;
12886;SDS011;6511;49.746;6.094;2023-05-19T07:16:51;1.50;;;1.10;;
12886;SDS011;6511;49.746;6.094;2023-05-19T07:19:17;2.38;;;1.33;;
12886;SDS011;6511;49.746;6.094;2023-05-19T07:21:44;0.80;;;0.80;;
12886;SDS011;6511;49.746;6.094;2023-05-19T07:24:10;2.50;;;1.08;;
12886;SDS011;6511;49.746;6.094;2023-05-19T07:26:35;1.73;;;0.98;;
12886;SDS011;6511;49.746;6.094;2023-05-19T07:29:01;2.20;;;1.10;;
12886;SDS011;6511;49.746;6.094;2023-05-19T07:31:27;1.50;;;1.00;;
12886;SDS011;6511;49.746;6.094;2023-05-19T07:33:52;1.92;;;1.13;;
12886;SDS011;6511;49.746;6.094;2023-05-19T07:36:18;2.07;;;1.07;;
12886;SDS011;6511;49.746;6.094;2023-05-19T07:38:47;2.70;;;1.20;;
12886;SDS011;6511;49.746;6.094;2023-05-19T07:41:12;1.40;;;1.08;;
12886;SDS011;6511;49.746;6.094;2023-05-19T07:43:38;3.00;;;1.00;;
12886;SDS011;6511;49.746;6.094;2023-05-19T07:46:04;2.88;;;1.10;;
12886;SDS011;6511;49.746;6.094;2023-05-19T07:48:30;2.42;;;1.00;;
12886;SDS011;6511;49.746;6.094;2023-05-19T07:50:55;1.20;;;1.10;;
12886;SDS011;6511;49.746;6.094;2023-05-19T07:53:21;1.30;;;0.90;;
12886;SDS011;6511;49.746;6.094;2023-05-19T07:55:47;2.20;;;1.20;;
12886;SDS011;6511;49.746;6.094;2023-05-19T07:58:13;2.20;;;1.08;;
12886;SDS011;6511;49.746;6.094;2023-05-19T08:00:39;1.77;;;1.00;;
12886;SDS011;6511;49.746;6.094;2023-05-19T08:03:07;2.13;;;1.23;;
12886;SDS011;6511;49.746;6.094;2023-05-19T08:05:33;2.55;;;1.10;;
12886;SDS011;6511;49.746;6.094;2023-05-19T08:07:59;2.25;;;1.00;;
12886;SDS011;6511;49.746;6.094;2023-05-19T08:10:25;3.50;;;1.17;;
12886;SDS011;6511;49.746;6.094;2023-05-19T08:12:51;2.33;;;1.10;;
12886;SDS011;6511;49.746;6.094;2023-05-19T08:15:17;2.03;;;1.00;;
12886;SDS011;6511;49.746;6.094;2023-05-19T08:17:43;2.95;;;1.10;;
12886;SDS011;6511;49.746;6.094;2023-05-19T08:20:08;1.70;;;1.10;;
12886;SDS011;6511;49.746;6.094;2023-05-19T08:22:35;1.70;;;1.30;;
12886;SDS011;6511;49.746;6.094;2023-05-19T08:25:01;1.90;;;1.30;;
12886;SDS011;6511;49.746;6.094;2023-05-19T08:27:30;1.73;;;1.20;;
12886;SDS011;6511;49.746;6.094;2023-05-19T08:29:56;1.25;;;1.00;;
12886;SDS011;6511;49.746;6.094;2023-05-19T08:32:21;1.90;;;1.10;;
12886;SDS011;6511;49.746;6.094;2023-05-19T08:34:47;1.60;;;1.10;;
12886;SDS011;6511;49.746;6.094;2023-05-19T08:37:13;1.00;;;0.90;;
12886;SDS011;6511;49.746;6.094;2023-05-19T08:39:42;1.70;;;1.00;;
12886;SDS011;6511;49.746;6.094;2023-05-19T08:42:07;1.92;;;1.00;;
12886;SDS011;6511;49.746;6.094;2023-05-19T08:44:34;1.70;;;1.10;;
12886;SDS011;6511;49.746;6.094;2023-05-19T08:47:02;1.25;;;1.00;;
12886;SDS011;6511;49.746;6.094;2023-05-19T08:49:30;1.48;;;1.10;;
12886;SDS011;6511;49.746;6.094;2023-05-19T08:51:59;3.17;;;1.20;;
12886;SDS011;6511;49.746;6.094;2023-05-19T08:54:36;1.20;;;0.93;;
12886;SDS011;6511;49.746;6.094;2023-05-19T08:57:09;1.10;;;1.00;;
12886;SDS011;6511;49.746;6.094;2023-05-19T08:59:35;3.35;;;1.10;;
12886;SDS011;6511;49.746;6.094;2023-05-19T09:02:02;1.83;;;1.20;;
12886;SDS011;6511;49.746;6.094;2023-05-19T09:04:28;2.40;;;1.05;;
12886;SDS011;6511;49.746;6.094;2023-05-19T09:06:55;2.05;;;1.10;;
12886;SDS011;6511;49.746;6.094;2023-05-19T09:09:22;3.40;;;1.10;;
12886;SDS011;6511;49.746;6.094;2023-05-19T09:11:48;2.17;;;1.05;;
12886;SDS011;6511;49.746;6.094;2023-05-19T09:14:14;1.77;;;1.08;;
12886;SDS011;6511;49.746;6.094;2023-05-19T09:16:39;0.90;;;0.90;;
12886;SDS011;6511;49.746;6.094;2023-05-19T09:19:11;2.80;;;1.10;;
12886;SDS011;6511;49.746;6.094;2023-05-19T09:21:39;1.92;;;1.00;;
12886;SDS011;6511;49.746;6.094;2023-05-19T09:24:05;2.20;;;0.90;;
12886;SDS011;6511;49.746;6.094;2023-05-19T09:26:38;2.17;;;1.10;;
12886;SDS011;6511;49.746;6.094;2023-05-19T09:29:16;1.88;;;1.20;;
12886;SDS011;6511;49.746;6.094;2023-05-19T09:34:24;2.13;;;1.15;;
12886;SDS011;6511;49.746;6.094;2023-05-19T09:36:51;1.88;;;1.00;;
12886;SDS011;6511;49.746;6.094;2023-05-19T09:39:18;2.17;;;1.00;;
12886;SDS011;6511;49.746;6.094;2023-05-19T09:41:45;1.65;;;0.95;;
12886;SDS011;6511;49.746;6.094;2023-05-19T09:44:21;1.88;;;1.10;;
12886;SDS011;6511;49.746;6.094;2023-05-19T09:46:51;2.42;;;0.95;;
12886;SDS011;6511;49.746;6.094;2023-05-19T09:49:17;2.03;;;1.13;;
12886;SDS011;6511;49.746;6.094;2023-05-19T09:51:44;3.30;;;1.00;;
12886;SDS011;6511;49.746;6.094;2023-05-19T09:54:16;1.10;;;1.00;;
12886;SDS011;6511;49.746;6.094;2023-05-19T09:56:41;1.27;;;1.00;;
12886;SDS011;6511;49.746;6.094;2023-05-19T09:59:07;1.10;;;1.00;;
12886;SDS011;6511;49.746;6.094;2023-05-19T10:01:32;2.37;;;1.20;;
12886;SDS011;6511;49.746;6.094;2023-05-19T10:04:05;1.83;;;1.20;;
12886;SDS011;6511;49.746;6.094;2023-05-19T10:06:30;1.73;;;1.20;;
12886;SDS011;6511;49.746;6.094;2023-05-19T10:08:56;1.25;;;1.02;;
12886;SDS011;6511;49.746;6.094;2023-05-19T10:11:23;2.13;;;1.10;;
12886;SDS011;6511;49.746;6.094;2023-05-19T10:13:49;1.58;;;0.93;;
12886;SDS011;6511;49.746;6.094;2023-05-19T10:16:15;1.63;;;1.10;;
12886;SDS011;6511;49.746;6.094;2023-05-19T10:18:42;1.92;;;1.08;;
12886;SDS011;6511;49.746;6.094;2023-05-19T10:21:08;2.20;;;1.10;;
12886;SDS011;6511;49.746;6.094;2023-05-19T10:23:34;1.33;;;1.10;;
12886;SDS011;6511;49.746;6.094;2023-05-19T10:26:00;1.10;;;1.00;;
12886;SDS011;6511;49.746;6.094;2023-05-19T10:28:38;2.03;;;1.20;;
12886;SDS011;6511;49.746;6.094;2023-05-19T10:31:07;2.55;;;1.20;;
12886;SDS011;6511;49.746;6.094;2023-05-19T10:36:31;3.50;;;1.00;;
12886;SDS011;6511;49.746;6.094;2023-05-19T10:39:03;1.17;;;0.90;;
12886;SDS011;6511;49.746;6.094;2023-05-19T10:41:42;1.45;;;1.00;;
12886;SDS011;6511;49.746;6.094;2023-05-19T10:46:55;1.65;;;1.00;;
12886;SDS011;6511;49.746;6.094;2023-05-19T10:49:21;2.67;;;1.10;;
12886;SDS011;6511;49.746;6.094;2023-05-19T10:51:47;3.08;;;0.98;;
12886;SDS011;6511;49.746;6.094;2023-05-19T10:54:13;2.58;;;1.08;;
12886;SDS011;6511;49.746;6.094;2023-05-19T10:56:41;1.65;;;1.00;;
12886;SDS011;6511;49.746;6.094;2023-05-19T10:59:29;1.45;;;1.10;;
12886;SDS011;6511;49.746;6.094;2023-05-19T11:01:56;2.22;;;1.15;;
12886;SDS011;6511;49.746;6.094;2023-05-19T11:04:44;2.28;;;1.23;;
12886;SDS011;6511;49.746;6.094;2023-05-19T11:07:17;1.20;;;1.10;;
12886;SDS011;6511;49.746;6.094;2023-05-19T11:09:48;1.80;;;1.20;;
12886;SDS011;6511;49.746;6.094;2023-05-19T11:12:18;2.50;;;1.00;;
12886;SDS011;6511;49.746;6.094;2023-05-19T11:14:46;2.38;;;1.08;;
12886;SDS011;6511;49.746;6.094;2023-05-19T11:17:12;1.67;;;1.13;;
12886;SDS011;6511;49.746;6.094;2023-05-19T11:19:39;1.92;;;1.20;;
12886;SDS011;6511;49.746;6.094;2023-05-19T11:22:21;2.80;;;1.13;;
12886;SDS011;6511;49.746;6.094;2023-05-19T11:24:53;2.05;;;1.00;;
12886;SDS011;6511;49.746;6.094;2023-05-19T11:29:45;1.10;;;1.00;;
12886;SDS011;6511;49.746;6.094;2023-05-19T11:32:15;3.45;;;1.10;;
12886;SDS011;6511;49.746;6.094;2023-05-19T11:34:42;3.63;;;1.20;;
12886;SDS011;6511;49.746;6.094;2023-05-19T11:37:08;1.53;;;1.10;;
12886;SDS011;6511;49.746;6.094;2023-05-19T11:39:35;1.70;;;1.17;;
12886;SDS011;6511;49.746;6.094;2023-05-19T11:42:01;2.08;;;0.90;;
12886;SDS011;6511;49.746;6.094;2023-05-19T11:44:26;1.30;;;1.10;;
12886;SDS011;6511;49.746;6.094;2023-05-19T11:46:52;1.43;;;1.00;;
12886;SDS011;6511;49.746;6.094;2023-05-19T11:49:18;1.80;;;1.00;;
12886;SDS011;6511;49.746;6.094;2023-05-19T11:51:44;2.35;;;1.02;;
12886;SDS011;6511;49.746;6.094;2023-05-19T11:54:10;1.35;;;1.00;;
12886;SDS011;6511;49.746;6.094;2023-05-19T11:56:39;1.88;;;1.00;;
12886;SDS011;6511;49.746;6.094;2023-05-19T11:59:06;1.93;;;1.00;;
12886;SDS011;6511;49.746;6.094;2023-05-19T12:01:33;1.77;;;0.98;;
12886;SDS011;6511;49.746;6.094;2023-05-19T12:03:59;1.83;;;0.98;;
12886;SDS011;6511;49.746;6.094;2023-05-19T12:06:25;2.67;;;1.20;;
12886;SDS011;6511;49.746;6.094;2023-05-19T12:08:55;1.35;;;0.90;;
12886;SDS011;6511;49.746;6.094;2023-05-19T12:11:21;2.55;;;1.00;;
12886;SDS011;6511;49.746;6.094;2023-05-19T12:13:47;1.13;;;1.02;;
12886;SDS011;6511;49.746;6.094;2023-05-19T12:16:14;1.38;;;0.95;;
12886;SDS011;6511;49.746;6.094;2023-05-19T12:18:44;2.05;;;1.00;;
12886;SDS011;6511;49.746;6.094;2023-05-19T12:21:09;1.80;;;1.10;;
12886;SDS011;6511;49.746;6.094;2023-05-19T12:23:36;1.60;;;1.20;;
12886;SDS011;6511;49.746;6.094;2023-05-19T12:26:02;1.35;;;1.00;;
12886;SDS011;6511;49.746;6.094;2023-05-19T12:28:29;1.50;;;0.90;;
12886;SDS011;6511;49.746;6.094;2023-05-19T12:30:55;2.88;;;1.20;;
12886;SDS011;6511;49.746;6.094;2023-05-19T12:33:22;1.63;;;1.00;;
12886;SDS011;6511;49.746;6.094;2023-05-19T12:35:48;1.80;;;1.15;;
12886;SDS011;6511;49.746;6.094;2023-05-19T12:38:14;1.17;;;1.02;;
12886;SDS011;6511;49.746;6.094;2023-05-19T12:40:40;1.52;;;1.20;;
12886;SDS011;6511;49.746;6.094;2023-05-19T12:43:07;2.50;;;1.20;;
12886;SDS011;6511;49.746;6.094;2023-05-19T12:45:36;3.20;;;1.10;;
12886;SDS011;6511;49.746;6.094;2023-05-19T12:48:12;1.70;;;1.15;;
12886;SDS011;6511;49.746;6.094;2023-05-19T12:50:42;2.40;;;1.10;;
12886;SDS011;6511;49.746;6.094;2023-05-19T12:53:11;1.77;;;1.10;;
12886;SDS011;6511;49.746;6.094;2023-05-19T12:55:38;1.42;;;1.10;;
12886;SDS011;6511;49.746;6.094;2023-05-19T12:58:09;1.70;;;1.00;;
12886;SDS011;6511;49.746;6.094;2023-05-19T13:00:42;2.38;;;1.30;;
12886;SDS011;6511;49.746;6.094;2023-05-19T13:03:14;1.50;;;1.15;;
12886;SDS011;6511;49.746;6.094;2023-05-19T13:05:42;1.60;;;0.90;;
12886;SDS011;6511;49.746;6.094;2023-05-19T13:08:13;1.20;;;1.10;;
12886;SDS011;6511;49.746;6.094;2023-05-19T13:10:41;1.43;;;0.93;;
12886;SDS011;6511;49.746;6.094;2023-05-19T13:13:08;1.35;;;1.17;;
12886;SDS011;6511;49.746;6.094;2023-05-19T13:15:36;1.45;;;0.90;;
12886;SDS011;6511;49.746;6.094;2023-05-19T13:18:04;1.23;;;1.05;;
12886;SDS011;6511;49.746;6.094;2023-05-19T13:20:31;1.85;;;1.30;;
12886;SDS011;6511;49.746;6.094;2023-05-19T13:22:57;1.92;;;1.00;;
12886;SDS011;6511;49.746;6.094;2023-05-19T13:25:23;1.70;;;1.15;;
12886;SDS011;6511;49.746;6.094;2023-05-19T13:27:49;1.27;;;1.10;;
12886;SDS011;6511;49.746;6.094;2023-05-19T13:30:15;1.30;;;1.10;;
12886;SDS011;6511;49.746;6.094;2023-05-19T13:32:41;1.40;;;1.10;;
12886;SDS011;6511;49.746;6.094;2023-05-19T13:35:08;1.80;;;1.23;;
12886;SDS011;6511;49.746;6.094;2023-05-19T13:37:34;1.33;;;1.00;;
12886;SDS011;6511;49.746;6.094;2023-05-19T13:40:00;2.67;;;1.08;;
12886;SDS011;6511;49.746;6.094;2023-05-19T13:42:27;1.20;;;1.08;;
12886;SDS011;6511;49.746;6.094;2023-05-19T13:44:53;2.00;;;0.95;;
12886;SDS011;6511;49.746;6.094;2023-05-19T13:47:20;1.00;;;0.90;;
12886;SDS011;6511;49.746;6.094;2023-05-19T13:49:49;1.42;;;0.98;;
12886;SDS011;6511;49.746;6.094;2023-05-19T13:52:15;2.70;;;1.10;;
12886;SDS011;6511;49.746;6.094;2023-05-19T13:54:41;1.40;;;1.00;;
12886;SDS011;6511;49.746;6.094;2023-05-19T13:57:07;1.65;;;1.00;;
12886;SDS011;6511;49.746;6.094;2023-05-19T13:59:33;2.30;;;1.17;;
12886;SDS011;6511;49.746;6.094;2023-05-19T14:01:59;1.60;;;1.10;;
12886;SDS011;6511;49.746;6.094;2023-05-19T14:04:26;0.85;;;0.80;;
12886;SDS011;6511;49.746;6.094;2023-05-19T14:06:52;1.17;;;1.08;;
12886;SDS011;6511;49.746;6.094;2023-05-19T14:09:17;0.93;;;0.80;;
12886;SDS011;6511;49.746;6.094;2023-05-19T14:11:43;1.63;;;0.90;;
12886;SDS011;6511;49.746;6.094;2023-05-19T14:14:09;1.52;;;1.10;;
12886;SDS011;6511;49.746;6.094;2023-05-19T14:16:35;1.30;;;1.00;;
12886;SDS011;6511;49.746;6.094;2023-05-19T14:19:00;1.13;;;1.03;;
12886;SDS011;6511;49.746;6.094;2023-05-19T14:21:26;2.07;;;1.10;;
12886;SDS011;6511;49.746;6.094;2023-05-19T14:23:51;1.53;;;1.03;;
12886;SDS011;6511;49.746;6.094;2023-05-19T14:26:17;1.37;;;1.00;;
12886;SDS011;6511;49.746;6.094;2023-05-19T14:28:43;1.52;;;1.00;;
12886;SDS011;6511;49.746;6.094;2023-05-19T14:31:12;1.77;;;1.10;;
12886;SDS011;6511;49.746;6.094;2023-05-19T14:33:39;1.43;;;1.00;;
12886;SDS011;6511;49.746;6.094;2023-05-19T14:36:05;1.03;;;0.90;;
12886;SDS011;6511;49.746;6.094;2023-05-19T14:38:32;1.92;;;0.98;;
12886;SDS011;6511;49.746;6.094;2023-05-19T14:40:58;2.25;;;1.00;;
12886;SDS011;6511;49.746;6.094;2023-05-19T14:43:23;1.17;;;1.00;;
12886;SDS011;6511;49.746;6.094;2023-05-19T14:45:49;1.70;;;0.90;;
12886;SDS011;6511;49.746;6.094;2023-05-19T14:48:15;1.60;;;1.30;;
12886;SDS011;6511;49.746;6.094;2023-05-19T14:50:40;1.70;;;1.25;;
12886;SDS011;6511;49.746;6.094;2023-05-19T14:53:06;1.27;;;0.97;;
12886;SDS011;6511;49.746;6.094;2023-05-19T14:55:32;2.43;;;0.90;;
12886;SDS011;6511;49.746;6.094;2023-05-19T14:57:57;2.37;;;1.00;;
12886;SDS011;6511;49.746;6.094;2023-05-19T15:00:23;2.57;;;1.10;;
12886;SDS011;6511;49.746;6.094;2023-05-19T15:02:50;2.42;;;1.10;;
12886;SDS011;6511;49.746;6.094;2023-05-19T15:05:19;1.70;;;1.30;;
12886;SDS011;6511;49.746;6.094;2023-05-19T15:07:46;1.60;;;1.00;;
12886;SDS011;6511;49.746;6.094;2023-05-19T15:10:12;1.87;;;1.17;;
12886;SDS011;6511;49.746;6.094;2023-05-19T15:12:37;1.90;;;1.10;;
12886;SDS011;6511;49.746;6.094;2023-05-19T15:15:03;1.53;;;0.90;;
12886;SDS011;6511;49.746;6.094;2023-05-19T15:17:29;1.65;;;0.90;;
12886;SDS011;6511;49.746;6.094;2023-05-19T15:19:55;1.50;;;0.87;;
12886;SDS011;6511;49.746;6.094;2023-05-19T15:22:20;2.07;;;0.90;;
12886;SDS011;6511;49.746;6.094;2023-05-19T15:24:46;1.17;;;1.00;;
12886;SDS011;6511;49.746;6.094;2023-05-19T15:27:11;1.03;;;0.90;;
12886;SDS011;6511;49.746;6.094;2023-05-19T15:29:37;1.50;;;1.00;;